Jilin, China
Current Conditions -  °F | °C
As of 10:00 AM on Saturday 29 Nov 2014 (Local Time) from ZYCC Reporting Station
Haze Haze  
Wind Chill: 20°   Ceiling: Unl
Heat Index: 28°   Visibility: 3mi
Dew Point: 12°   Wind: 9mph
Humidity: 51%   Direction: 140°SE
Pressure: 30.15"   Gusts: NA
Location:  43.85°N, 126.55°E
Report Text: ZYCC 290200Z 14004MPS 5000 BR NSC M02/M11 Q1021 NOSIG
Loading
Personal Weather Stations






























Interactive Weather Map New forecast layout! Learn more

10-Day Weather Forecast

Advertisements
Track Severe Weather on mobile